createdAt,value
2018-07-28T00:01:00.213Z,94676.66
2018-07-28T00:03:29.630Z,94673.22
2018-07-28T00:05:59.453Z,94675.66
2018-07-28T00:08:29.557Z,94676.52
2018-07-28T00:10:59.313Z,94677.84
2018-07-28T00:13:28.830Z,94676.77
2018-07-28T00:15:58.617Z,94681.06
2018-07-28T00:18:34.269Z,94673.86
2018-07-28T00:21:16.643Z,94652.31
2018-07-28T00:23:50.078Z,94679.56
2018-07-28T00:26:21.472Z,94678.88
2018-07-28T00:29:10.916Z,94682.64
2018-07-28T00:31:45.871Z,94689.80
2018-07-28T00:34:27.549Z,94686.67
2018-07-28T00:36:59.366Z,94683.65
2018-07-28T00:39:36.054Z,94680.05
2018-07-28T00:42:08.923Z,94677.33
2018-07-28T00:44:48.138Z,94671.54
2018-07-28T00:47:27.302Z,94672.63
2018-07-28T00:49:58.021Z,94678.32
2018-07-28T00:52:28.845Z,94680.30
2018-07-28T00:54:58.585Z,94679.52
2018-07-28T00:57:29.401Z,94675.14
2018-07-28T01:00:00.553Z,94674.34
2018-07-28T01:02:33.214Z,94664.95
2018-07-28T01:05:09.190Z,94665.97
2018-07-28T01:07:44.693Z,94667.22
2018-07-28T01:10:14.098Z,94664.34
2018-07-28T01:12:44.028Z,94666.45
2018-07-28T01:15:23.338Z,94674.11
2018-07-28T01:17:53.080Z,94664.98
2018-07-28T01:20:23.269Z,94664.36
2018-07-28T01:22:53.026Z,94659.27
2018-07-28T01:28:05.966Z,94654.64
2018-07-28T01:30:35.867Z,94655.06
2018-07-28T01:33:05.249Z,94651.94
2018-07-28T01:35:34.805Z,94646.62
2018-07-28T01:38:04.373Z,94641.06
2018-07-28T01:40:34.165Z,94651.00
2018-07-28T01:43:03.677Z,94648.03
2018-07-28T01:45:33.569Z,94651.55
2018-07-28T01:48:03.022Z,94647.26
2018-07-28T01:50:32.856Z,94648.81
2018-07-28T01:53:02.649Z,94643.66
2018-07-28T01:55:32.391Z,94639.21
2018-07-28T01:58:04.577Z,94644.59
2018-07-28T02:00:34.454Z,94643.42
2018-07-28T02:03:03.826Z,94647.72
2018-07-28T02:05:33.437Z,94649.98
2018-07-28T02:08:02.950Z,94650.37
2018-07-28T02:10:32.535Z,94646.92
2018-07-28T02:13:02.160Z,94655.36
2018-07-28T02:15:32.091Z,94654.82
2018-07-28T02:18:01.764Z,94654.34
2018-07-28T02:20:31.179Z,94656.75
2018-07-28T02:23:00.813Z,94657.39
2018-07-28T02:25:30.308Z,94659.72
2018-07-28T02:28:00.196Z,94658.83
2018-07-28T02:30:29.942Z,94666.88
2018-07-28T02:32:59.430Z,94664.39
2018-07-28T02:35:28.822Z,94660.54
2018-07-28T02:37:58.385Z,94663.79
2018-07-28T02:40:27.875Z,94658.73
2018-07-28T02:42:57.343Z,94656.08
2018-07-28T02:45:27.014Z,94660.28
2018-07-28T02:47:56.410Z,94667.55
2018-07-28T02:50:26.182Z,94670.30
2018-07-28T02:52:56.290Z,94676.95
2018-07-28T02:55:25.760Z,94675.94
2018-07-28T02:57:55.612Z,94674.13
2018-07-28T03:00:25.268Z,94679.28
2018-07-28T03:02:54.742Z,94675.77
2018-07-28T03:05:24.347Z,94685.27
2018-07-28T03:07:54.160Z,94681.41
2018-07-28T03:10:23.688Z,94679.86
2018-07-28T03:12:53.140Z,94682.30
2018-07-28T03:15:30.514Z,94693.12
2018-07-28T03:18:01.211Z,94684.69
2018-07-28T03:20:30.925Z,94690.38
2018-07-28T03:23:01.701Z,94686.64
2018-07-28T03:25:31.560Z,94688.66
2018-07-28T03:28:00.880Z,94680.91
2018-07-28T03:30:31.006Z,94688.64
2018-07-28T03:33:00.329Z,94691.50
2018-07-28T03:35:36.734Z,94687.75
2018-07-28T03:38:06.644Z,94696.02
2018-07-28T03:40:36.379Z,94693.31
2018-07-28T03:43:06.180Z,94688.17
2018-07-28T03:45:35.653Z,94688.00
2018-07-28T03:48:05.130Z,94690.25
2018-07-28T03:50:35.637Z,94694.38
2018-07-28T03:53:05.337Z,94684.95
2018-07-28T03:55:34.837Z,94683.18
2018-07-28T03:58:04.682Z,94678.80
2018-07-28T04:00:34.262Z,94669.61
2018-07-28T04:03:03.729Z,94669.67
2018-07-28T04:05:34.318Z,94673.13
2018-07-28T04:08:03.815Z,94675.63
2018-07-28T04:10:33.826Z,94676.73
2018-07-28T04:13:03.910Z,94677.20
2018-07-28T04:15:33.657Z,94681.28
2018-07-28T04:18:03.263Z,94674.94
2018-07-28T04:20:33.029Z,94681.51
2018-07-28T04:23:02.421Z,94691.46
2018-07-28T04:25:32.169Z,94687.64
2018-07-28T04:28:01.694Z,94693.64
2018-07-28T04:30:31.450Z,94691.46
2018-07-28T04:33:01.022Z,94690.20
2018-07-28T04:35:30.929Z,94690.67
2018-07-28T04:38:00.829Z,94693.05
2018-07-28T04:40:30.658Z,94691.88
2018-07-28T04:43:00.606Z,94696.75
2018-07-28T04:45:30.063Z,94691.51
2018-07-28T04:47:59.693Z,94693.38
2018-07-28T04:50:29.777Z,94698.68
2018-07-28T04:52:59.437Z,94698.36
2018-07-28T04:55:29.018Z,94694.38
2018-07-28T04:57:58.845Z,94699.47
2018-07-28T05:00:28.459Z,94703.55
2018-07-28T05:02:58.348Z,94699.78
2018-07-28T05:05:28.071Z,94702.53
2018-07-28T05:07:57.463Z,94701.84
2018-07-28T05:10:27.377Z,94703.09
2018-07-28T05:12:57.355Z,94693.80
2018-07-28T05:15:27.106Z,94695.75
2018-07-28T05:17:57.041Z,94693.57
2018-07-28T05:20:26.665Z,94700.57
2018-07-28T05:22:56.359Z,94697.00
2018-07-28T05:25:26.266Z,94705.61
2018-07-28T05:27:56.113Z,94706.46
2018-07-28T05:30:25.682Z,94713.47
2018-07-28T05:32:55.418Z,94712.91
2018-07-28T05:35:24.889Z,94717.12
2018-07-28T05:37:54.278Z,94716.95
2018-07-28T05:40:23.773Z,94721.03
2018-07-28T05:42:53.981Z,94723.86
2018-07-28T05:45:23.738Z,94726.28
2018-07-28T05:47:53.237Z,94724.80
2018-07-28T05:50:23.045Z,94723.41
2018-07-28T05:52:52.531Z,94722.16
2018-07-28T05:55:22.010Z,94728.63
2018-07-28T05:57:51.658Z,94726.28
2018-07-28T06:00:21.465Z,94730.56
2018-07-28T06:02:51.267Z,94728.41
2018-07-28T06:05:21.361Z,94735.05
2018-07-28T06:07:50.918Z,94731.16
2018-07-28T06:10:20.776Z,94732.27
2018-07-28T06:12:50.833Z,94725.38
2018-07-28T06:15:20.699Z,94722.41
2018-07-28T06:17:52.663Z,94721.66
2018-07-28T06:20:22.139Z,94726.61
2018-07-28T06:22:51.795Z,94718.72
2018-07-28T06:25:21.716Z,94717.59
2018-07-28T06:27:51.511Z,94716.53
2018-07-28T06:30:21.092Z,94712.67
2018-07-28T06:32:50.920Z,94711.17
2018-07-28T06:35:20.556Z,94711.36
2018-07-28T06:37:50.023Z,94712.23
2018-07-28T06:40:20.195Z,94706.77
2018-07-28T06:42:49.897Z,94707.09
2018-07-28T06:45:19.457Z,94709.95
2018-07-28T06:47:49.393Z,94710.03
2018-07-28T06:50:19.002Z,94716.63
2018-07-28T06:52:48.555Z,94719.98
2018-07-28T06:55:18.529Z,94713.67
2018-07-28T06:57:48.272Z,94710.95
2018-07-28T07:00:17.847Z,94705.23
2018-07-28T07:02:47.444Z,94700.67
2018-07-28T07:05:16.886Z,94703.75
2018-07-28T07:07:46.256Z,94702.40
2018-07-28T07:10:16.014Z,94696.50
2018-07-28T07:12:45.729Z,94698.62
2018-07-28T07:15:15.283Z,94696.56
2018-07-28T07:17:45.346Z,94698.03
2018-07-28T07:20:14.885Z,94691.75
2018-07-28T07:22:44.826Z,94694.47
2018-07-28T07:25:15.088Z,94693.00
2018-07-28T07:27:44.794Z,94688.17
2018-07-28T07:30:14.280Z,94685.42
2018-07-28T07:32:43.843Z,94689.13
2018-07-28T07:35:13.387Z,94689.91
2018-07-28T07:37:42.975Z,94692.06
2018-07-28T07:40:12.619Z,94684.52
2018-07-28T07:42:42.313Z,94686.86
2018-07-28T07:45:11.830Z,94687.55
2018-07-28T07:47:41.296Z,94685.02
2018-07-28T07:50:11.098Z,94690.14
2018-07-28T07:52:40.756Z,94689.16
2018-07-28T07:55:10.541Z,94693.83
2018-07-28T07:57:40.176Z,94691.98
2018-07-28T08:00:10.443Z,94693.22
2018-07-28T08:02:39.880Z,94687.09
2018-07-28T08:05:09.791Z,94687.23
2018-07-28T08:07:39.599Z,94688.92
2018-07-28T08:10:09.363Z,94695.13
2018-07-28T08:12:39.149Z,94692.02
2018-07-28T08:15:09.238Z,94686.92
2018-07-28T08:17:39.269Z,94682.48
2018-07-28T08:20:08.887Z,94687.25
2018-07-28T08:22:38.942Z,94687.13
2018-07-28T08:25:08.847Z,94683.79
2018-07-28T08:27:38.149Z,94685.37
2018-07-28T08:30:08.388Z,94681.57
2018-07-28T08:32:38.170Z,94677.56
2018-07-28T08:35:08.572Z,94675.99
2018-07-28T08:37:38.423Z,94676.09
2018-07-28T08:40:07.983Z,94681.64
2018-07-28T08:42:37.373Z,94679.06
2018-07-28T08:45:07.491Z,94677.83
2018-07-28T08:47:37.258Z,94679.06
2018-07-28T08:50:06.989Z,94674.70
2018-07-28T08:52:36.897Z,94668.97
2018-07-28T08:55:06.305Z,94668.36
2018-07-28T08:57:35.939Z,94669.78
2018-07-28T09:00:06.513Z,94668.16
2018-07-28T09:02:36.213Z,94656.98
2018-07-28T09:05:06.370Z,94659.64
2018-07-28T09:07:36.489Z,94652.47
2018-07-28T09:10:06.087Z,94656.21
2018-07-28T09:12:35.850Z,94648.22
2018-07-28T09:15:06.204Z,94647.47
2018-07-28T09:17:35.949Z,94644.63
2018-07-28T09:20:06.151Z,94645.35
2018-07-28T09:22:35.722Z,94639.98
2018-07-28T09:25:05.558Z,94634.46
2018-07-28T09:27:35.010Z,94638.16
2018-07-28T09:30:05.624Z,94633.61
2018-07-28T09:32:35.141Z,94632.50
2018-07-28T09:35:04.934Z,94632.27
2018-07-28T09:37:40.753Z,94630.90
2018-07-28T09:40:10.131Z,94634.24
2018-07-28T09:42:39.704Z,94629.47
2018-07-28T09:45:09.558Z,94621.89
2018-07-28T09:47:39.100Z,94617.25
2018-07-28T09:50:08.445Z,94613.73
2018-07-28T09:52:38.246Z,94610.23
2018-07-28T09:55:08.105Z,94613.87
2018-07-28T09:57:37.666Z,94603.19
2018-07-28T10:00:07.778Z,94599.17
2018-07-28T10:02:37.534Z,94597.55
2018-07-28T10:05:07.062Z,94603.05
2018-07-28T10:07:36.717Z,94603.77
2018-07-28T10:10:06.323Z,94594.15
2018-07-28T10:12:36.115Z,94593.66
2018-07-28T10:15:06.245Z,94587.61
2018-07-28T10:17:35.937Z,94582.80
2018-07-28T10:20:05.784Z,94579.95
2018-07-28T10:22:35.722Z,94589.86
2018-07-28T10:25:05.178Z,94583.52
2018-07-28T10:27:35.106Z,94576.36
2018-07-28T10:30:06.092Z,94572.16
2018-07-28T10:32:35.897Z,94563.21
2018-07-28T10:35:06.173Z,94563.91
2018-07-28T10:37:36.750Z,94560.43
2018-07-28T10:40:06.901Z,94556.27
2018-07-28T10:42:37.286Z,94551.45
2018-07-28T10:45:06.767Z,94556.36
2018-07-28T10:47:36.487Z,94562.30
2018-07-28T10:50:06.205Z,94556.11
2018-07-28T10:52:35.941Z,94553.42
2018-07-28T10:55:05.410Z,94555.22
2018-07-28T10:57:35.572Z,94547.70
2018-07-28T11:00:06.770Z,94544.59
2018-07-28T11:02:36.550Z,94552.97
2018-07-28T11:05:06.554Z,94549.23
2018-07-28T11:07:36.096Z,94541.88
2018-07-28T11:10:07.129Z,94542.38
2018-07-28T11:12:36.514Z,94541.30
2018-07-28T11:15:07.702Z,94540.55
2018-07-28T11:17:38.033Z,94533.50
2018-07-28T11:20:09.921Z,94532.81
2018-07-28T11:22:39.933Z,94532.19
2018-07-28T11:25:09.745Z,94524.28
2018-07-28T11:27:39.537Z,94532.03
2018-07-28T11:30:09.956Z,94530.84
2018-07-28T11:32:52.589Z,94521.23
2018-07-28T11:35:33.331Z,94526.73
2018-07-28T11:38:24.993Z,94521.84
2018-07-28T11:41:05.856Z,94518.78
2018-07-28T11:43:46.618Z,94512.74
2018-07-28T11:46:17.779Z,94507.04
2018-07-28T11:48:47.565Z,94518.72
2018-07-28T11:51:16.872Z,94507.91
2018-07-28T11:53:46.704Z,94506.55
2018-07-28T11:56:16.167Z,94508.77
2018-07-28T11:58:45.924Z,94505.13
2018-07-28T12:01:15.440Z,94498.00
2018-07-28T12:03:44.871Z,94502.66
2018-07-28T12:06:14.691Z,94502.10
2018-07-28T12:08:44.667Z,94503.35
2018-07-28T12:11:14.274Z,94503.18
2018-07-28T12:13:43.587Z,94498.57
2018-07-28T12:16:13.211Z,94501.06
2018-07-28T12:18:43.366Z,94502.62
2018-07-28T12:21:12.931Z,94506.98
2018-07-28T12:23:42.983Z,94513.34
2018-07-28T12:26:13.763Z,94514.13
2018-07-28T12:28:43.358Z,94507.61
2018-07-28T12:31:16.099Z,94502.24
2018-07-28T12:33:46.292Z,94501.80
2018-07-28T12:36:16.028Z,94496.20
2018-07-28T12:38:45.697Z,94493.49
2018-07-28T12:41:15.250Z,94493.63
2018-07-28T12:43:44.901Z,94493.50
2018-07-28T12:46:14.844Z,94488.58
2018-07-28T12:48:47.202Z,94491.44
2018-07-28T12:51:17.263Z,94486.23
2018-07-28T12:53:46.771Z,94480.23
2018-07-28T12:56:16.127Z,94480.80
2018-07-28T12:58:46.482Z,94490.75
2018-07-28T13:01:16.154Z,94484.67
2018-07-28T13:03:45.911Z,94481.81
2018-07-28T13:06:18.036Z,94485.44
2018-07-28T13:08:47.839Z,94485.22
2018-07-28T13:11:17.891Z,94482.67
2018-07-28T13:13:47.634Z,94483.92
2018-07-28T13:16:17.429Z,94489.36
2018-07-28T13:18:48.643Z,94494.12
2018-07-28T13:21:18.555Z,94485.47
2018-07-28T13:23:48.534Z,94486.61
2018-07-28T13:26:19.010Z,94492.16
2018-07-28T13:28:48.863Z,94489.34
2018-07-28T13:31:18.400Z,94487.32
2018-07-28T13:33:48.052Z,94489.11
2018-07-28T13:36:18.810Z,94492.05
2018-07-28T13:38:48.464Z,94486.39
2018-07-28T13:41:18.191Z,94491.75
2018-07-28T13:43:47.794Z,94487.38
2018-07-28T13:46:18.651Z,94485.79
2018-07-28T13:48:48.689Z,94487.02
2018-07-28T13:51:19.935Z,94493.62
2018-07-28T13:53:50.258Z,94502.05
2018-07-28T13:56:22.478Z,94510.09
2018-07-28T13:58:52.292Z,94508.47
2018-07-28T14:01:21.928Z,94504.01
2018-07-28T14:03:51.523Z,94505.45
2018-07-28T14:06:21.007Z,94515.94
2018-07-28T14:08:50.947Z,94505.00
2018-07-28T14:11:20.509Z,94505.82
2018-07-28T14:13:51.498Z,94501.67
2018-07-28T14:16:21.197Z,94498.00
2018-07-28T14:18:51.487Z,94502.62
2018-07-28T14:21:24.741Z,94505.05
2018-07-28T14:23:55.846Z,94499.08
2018-07-28T14:26:27.168Z,94503.38
2018-07-28T14:28:56.884Z,94510.31
2018-07-28T14:31:26.682Z,94503.00
2018-07-28T14:33:56.796Z,94507.19
2018-07-28T14:36:26.557Z,94506.12
2018-07-28T14:38:56.287Z,94512.43
2018-07-28T14:41:26.509Z,94513.86
2018-07-28T14:43:56.281Z,94511.88
2018-07-28T14:46:28.160Z,94514.86
2018-07-28T14:49:04.021Z,94524.66
2018-07-28T14:51:35.830Z,94522.91
2018-07-28T14:54:06.648Z,94512.58
2018-07-28T14:59:15.867Z,94517.45
2018-07-28T15:01:49.007Z,94520.89
2018-07-28T15:04:23.096Z,94524.09
2018-07-28T15:07:00.915Z,94527.34
2018-07-28T15:09:35.911Z,94516.95
2018-07-28T15:12:07.345Z,94523.93
2018-07-28T15:14:38.322Z,94521.92
2018-07-28T15:17:12.310Z,94513.31
2018-07-28T15:19:50.541Z,94514.85
2018-07-28T15:22:25.519Z,94519.45
2018-07-28T15:25:03.354Z,94528.02
2018-07-28T15:27:33.262Z,94522.09
2018-07-28T15:30:09.541Z,94524.75
2018-07-28T15:32:42.208Z,94519.00
2018-07-28T15:35:17.252Z,94514.53
2018-07-28T15:37:47.201Z,94515.80
2018-07-28T15:40:16.651Z,94516.93
2018-07-28T15:42:46.291Z,94534.28
2018-07-28T15:45:15.946Z,94541.41
2018-07-28T15:47:48.412Z,94545.23
2018-07-28T15:50:18.567Z,94534.66
2018-07-28T15:52:48.153Z,94530.11
2018-07-28T15:55:17.784Z,94528.66
2018-07-28T15:57:50.095Z,94528.22
2018-07-28T16:00:24.304Z,94529.54
2018-07-28T16:02:58.151Z,94530.49
2018-07-28T16:05:27.946Z,94531.36
2018-07-28T16:07:58.884Z,94543.86
2018-07-28T16:10:28.198Z,94546.06
2018-07-28T16:12:57.884Z,94553.37
2018-07-28T16:15:32.013Z,94558.27
2018-07-28T16:18:04.600Z,94558.51
2018-07-28T16:20:36.288Z,94557.56
2018-07-28T16:23:06.561Z,94554.41
2018-07-28T16:25:36.714Z,94563.30
2018-07-28T16:28:06.184Z,94570.97
2018-07-28T16:30:35.916Z,94562.76
2018-07-28T16:33:05.635Z,94567.80
2018-07-28T16:35:37.380Z,94568.48
2018-07-28T16:38:12.923Z,94554.57
2018-07-28T16:40:43.437Z,94558.76
2018-07-28T16:43:13.098Z,94556.00
2018-07-28T16:45:42.582Z,94549.61
2018-07-28T16:48:12.073Z,94558.23
2018-07-28T16:50:41.994Z,94558.89
2018-07-28T16:53:11.692Z,94554.31
2018-07-28T16:55:41.140Z,94561.92
2018-07-28T16:58:11.830Z,94564.00
2018-07-28T17:00:43.189Z,94568.23
2018-07-28T17:03:12.623Z,94572.42
2018-07-28T17:05:42.107Z,94575.20
2018-07-28T17:08:15.204Z,94590.22
2018-07-28T17:10:44.900Z,94584.59
2018-07-28T17:13:14.420Z,94586.45
2018-07-28T17:15:43.931Z,94586.77
2018-07-28T17:18:14.833Z,94602.10
2018-07-28T17:20:44.445Z,94607.58
2018-07-28T17:23:14.183Z,94601.91
2018-07-28T17:25:44.285Z,94605.58
2018-07-28T17:28:14.190Z,94602.58
2018-07-28T17:30:43.859Z,94601.12
2018-07-28T17:33:13.558Z,94594.64
2018-07-28T17:35:44.645Z,94595.40
2018-07-28T17:38:16.718Z,94594.83
2018-07-28T17:40:47.582Z,94594.86
2018-07-28T17:43:19.772Z,94593.95
2018-07-28T17:45:49.667Z,94597.41
2018-07-28T17:48:19.363Z,94609.83
2018-07-28T17:50:49.203Z,94610.61
2018-07-28T17:53:19.359Z,94613.28
2018-07-28T17:55:49.006Z,94616.83
2018-07-28T17:58:18.763Z,94617.58
2018-07-28T18:00:49.029Z,94636.77
2018-07-28T18:03:18.889Z,94639.02
2018-07-28T18:05:48.439Z,94643.70
2018-07-28T18:08:18.189Z,94644.00
2018-07-28T18:10:48.219Z,94650.59
2018-07-28T18:13:17.612Z,94664.76
2018-07-28T18:15:47.572Z,94669.52
2018-07-28T18:18:17.451Z,94675.45
2018-07-28T18:20:47.047Z,94689.61
2018-07-28T18:23:16.835Z,94694.06
2018-07-28T18:25:46.594Z,94696.13
2018-07-28T18:28:15.981Z,94694.91
2018-07-28T18:30:45.639Z,94706.06
2018-07-28T18:33:15.470Z,94706.94
2018-07-28T18:35:45.391Z,94700.73
2018-07-28T18:38:15.060Z,94698.58
2018-07-28T18:40:44.610Z,94695.95
2018-07-28T18:43:14.643Z,94682.48
2018-07-28T18:45:44.242Z,94690.20
2018-07-28T18:48:13.956Z,94696.03
2018-07-28T18:50:43.544Z,94700.50
2018-07-28T18:53:13.214Z,94701.83
2018-07-28T18:55:42.688Z,94715.88
2018-07-28T18:58:12.436Z,94711.87
2018-07-28T19:00:42.423Z,94734.59
2018-07-28T19:03:12.017Z,94734.50
2018-07-28T19:05:41.947Z,94743.96
2018-07-28T19:08:11.635Z,94742.37
2018-07-28T19:10:41.042Z,94736.23
2018-07-28T19:13:16.052Z,94742.34
2018-07-28T19:15:45.491Z,94745.90
2018-07-28T19:18:20.592Z,94747.75
2018-07-28T19:20:50.221Z,94754.02
2018-07-28T19:23:25.057Z,94749.87
2018-07-28T19:25:54.541Z,94748.63
2018-07-28T19:28:29.176Z,94741.02
2018-07-28T19:30:59.038Z,94733.70
2018-07-28T19:33:28.720Z,94740.63
2018-07-28T19:36:04.075Z,94742.24
2018-07-28T19:38:33.879Z,94745.09
2018-07-28T19:41:03.395Z,94743.63
2018-07-28T19:43:33.333Z,94746.88
2018-07-28T19:46:02.986Z,94748.52
2018-07-28T19:48:32.657Z,94748.78
2018-07-28T19:51:02.114Z,94747.39
2018-07-28T19:53:31.725Z,94732.58
2018-07-28T19:56:01.099Z,94726.11
2018-07-28T19:58:31.059Z,94730.20
2018-07-28T20:01:00.573Z,94730.67
2018-07-28T20:03:30.360Z,94731.94
2018-07-28T20:06:00.355Z,94728.13
2018-07-28T20:08:29.799Z,94727.73
2018-07-28T20:10:59.734Z,94730.78
2018-07-28T20:13:29.408Z,94737.18
2018-07-28T20:15:58.832Z,94732.43
2018-07-28T20:18:28.317Z,94735.16
2018-07-28T20:20:58.156Z,94724.20
2018-07-28T20:23:27.641Z,94723.09
2018-07-28T20:26:00.046Z,94728.95
2018-07-28T20:28:29.422Z,94711.70
2018-07-28T20:30:59.250Z,94705.77
2018-07-28T20:33:28.852Z,94698.66
2018-07-28T20:35:58.459Z,94700.91
2018-07-28T20:38:28.087Z,94694.59
2018-07-28T20:40:58.110Z,94689.20
2018-07-28T20:43:27.612Z,94684.05
2018-07-28T20:45:57.200Z,94685.28
2018-07-28T20:48:26.523Z,94686.13
2018-07-28T20:50:56.150Z,94685.06
2018-07-28T20:53:25.895Z,94687.31
2018-07-28T21:13:18.262Z,94715.59
2018-07-28T21:15:47.990Z,94728.31
2018-07-28T21:18:17.755Z,94720.12
2018-07-28T21:38:09.481Z,94723.17
2018-07-28T21:40:39.174Z,94725.20
2018-07-28T22:17:53.341Z,94724.92
2018-07-28T22:37:45.502Z,94704.55
2018-07-28T22:40:15.665Z,94706.53
2018-07-28T23:00:08.337Z,94689.70
2018-07-28T23:02:38.433Z,94692.36
2018-07-28T23:05:08.759Z,94691.75
2018-07-28T23:07:38.670Z,94698.25
2018-07-28T23:10:08.580Z,94690.49
2018-07-28T23:12:38.473Z,94694.48
2018-07-28T23:15:08.268Z,94698.61
2018-07-28T23:17:38.261Z,94696.34
2018-07-28T23:20:08.178Z,94695.66
2018-07-28T23:22:38.037Z,94692.53
2018-07-28T23:25:08.563Z,94691.42
2018-07-28T23:27:38.401Z,94691.35
2018-07-28T23:30:10.585Z,94699.17
2018-07-28T23:50:01.845Z,94695.27
2018-07-28T23:52:31.596Z,94687.19
2018-07-28T23:55:01.162Z,94681.98
2018-07-28T23:57:30.503Z,94686.44
